sensor_id;sensor_type;location;lat;lon;timestamp;pressure;altitude;pressure_sealevel;temperature;humidity
48968;BME280;46511;53.148;8.204;2023-03-21T00:00:57;101586.38;;;10.75;100.00
48968;BME280;46511;53.148;8.204;2023-03-21T00:03:31;101581.16;;;10.92;100.00
48968;BME280;46511;53.148;8.204;2023-03-21T00:06:07;101572.91;;;10.98;100.00
48968;BME280;46511;53.148;8.204;2023-03-21T00:08:41;101581.25;;;10.70;100.00
48968;BME280;46511;53.148;8.204;2023-03-21T00:11:12;101579.63;;;10.86;100.00
48968;BME280;46511;53.148;8.204;2023-03-21T00:13:44;101582.84;;;10.74;100.00
48968;BME280;46511;53.148;8.204;2023-03-21T00:16:16;101577.63;;;10.73;100.00
48968;BME280;46511;53.148;8.204;2023-03-21T00:18:48;101574.63;;;10.80;100.00
48968;BME280;46511;53.148;8.204;2023-03-21T00:21:23;101572.75;;;10.82;100.00
48968;BME280;46511;53.148;8.204;2023-03-21T00:23:58;101570.63;;;10.91;100.00
48968;BME280;46511;53.148;8.204;2023-03-21T00:26:30;101569.59;;;10.93;100.00
48968;BME280;46511;53.148;8.204;2023-03-21T00:29:02;101576.81;;;10.50;100.00
48968;BME280;46511;53.148;8.204;2023-03-21T00:31:34;101565.38;;;10.69;100.00
48968;BME280;46511;53.148;8.204;2023-03-21T00:34:05;101570.84;;;10.66;100.00
48968;BME280;46511;53.148;8.204;2023-03-21T00:36:36;101567.50;;;10.61;100.00
48968;BME280;46511;53.148;8.204;2023-03-21T00:39:08;101563.41;;;10.74;100.00
48968;BME280;46511;53.148;8.204;2023-03-21T00:41:34;101564.41;;;10.71;100.00
48968;BME280;46511;53.148;8.204;2023-03-21T00:44:06;101559.13;;;10.70;100.00
48968;BME280;46511;53.148;8.204;2023-03-21T00:46:37;101554.63;;;10.72;100.00
48968;BME280;46511;53.148;8.204;2023-03-21T00:49:08;101552.50;;;10.59;100.00
48968;BME280;46511;53.148;8.204;2023-03-21T00:51:41;101549.78;;;10.61;100.00
48968;BME280;46511;53.148;8.204;2023-03-21T00:54:13;101549.16;;;10.75;100.00
48968;BME280;46511;53.148;8.204;2023-03-21T00:56:44;101531.53;;;10.93;100.00
48968;BME280;46511;53.148;8.204;2023-03-21T00:59:16;101529.72;;;10.93;100.00
48968;BME280;46511;53.148;8.204;2023-03-21T01:01:47;101532.22;;;10.96;100.00
48968;BME280;46511;53.148;8.204;2023-03-21T01:04:18;101531.38;;;10.96;100.00
48968;BME280;46511;53.148;8.204;2023-03-21T01:06:51;101527.06;;;10.93;100.00
48968;BME280;46511;53.148;8.204;2023-03-21T01:09:23;101519.09;;;10.93;100.00
48968;BME280;46511;53.148;8.204;2023-03-21T01:11:55;101522.31;;;10.81;100.00
48968;BME280;46511;53.148;8.204;2023-03-21T01:14:26;101526.28;;;10.91;100.00
48968;BME280;46511;53.148;8.204;2023-03-21T01:16:57;101523.63;;;10.91;100.00
48968;BME280;46511;53.148;8.204;2023-03-21T01:19:29;101516.00;;;11.02;100.00
48968;BME280;46511;53.148;8.204;2023-03-21T01:22:00;101518.31;;;10.91;100.00
48968;BME280;46511;53.148;8.204;2023-03-21T01:24:31;101524.56;;;11.09;100.00
48968;BME280;46511;53.148;8.204;2023-03-21T01:27:03;101520.31;;;10.86;100.00
48968;BME280;46511;53.148;8.204;2023-03-21T01:29:34;101520.44;;;10.83;100.00
48968;BME280;46511;53.148;8.204;2023-03-21T01:32:05;101516.44;;;10.93;100.00
48968;BME280;46511;53.148;8.204;2023-03-21T01:34:37;101520.53;;;10.61;100.00
48968;BME280;46511;53.148;8.204;2023-03-21T01:37:11;101509.66;;;10.67;100.00
48968;BME280;46511;53.148;8.204;2023-03-21T01:39:42;101514.63;;;11.12;100.00
48968;BME280;46511;53.148;8.204;2023-03-21T01:42:13;101507.38;;;11.16;100.00
48968;BME280;46511;53.148;8.204;2023-03-21T01:47:24;101506.06;;;10.87;100.00
48968;BME280;46511;53.148;8.204;2023-03-21T01:49:57;101506.50;;;10.97;100.00
48968;BME280;46511;53.148;8.204;2023-03-21T01:52:31;101504.78;;;11.14;100.00
48968;BME280;46511;53.148;8.204;2023-03-21T01:55:08;101486.81;;;11.20;100.00
48968;BME280;46511;53.148;8.204;2023-03-21T01:57:45;101487.28;;;10.92;100.00
48968;BME280;46511;53.148;8.204;2023-03-21T02:00:19;101495.44;;;11.06;100.00
48968;BME280;46511;53.148;8.204;2023-03-21T02:02:54;101484.78;;;11.25;100.00
48968;BME280;46511;53.148;8.204;2023-03-21T02:05:31;101485.53;;;11.09;100.00
48968;BME280;46511;53.148;8.204;2023-03-21T02:08:11;101480.78;;;10.97;100.00
48968;BME280;46511;53.148;8.204;2023-03-21T02:10:44;101477.69;;;11.06;100.00
48968;BME280;46511;53.148;8.204;2023-03-21T02:13:18;101474.59;;;11.15;100.00
48968;BME280;46511;53.148;8.204;2023-03-21T02:15:56;101476.06;;;11.04;100.00
48968;BME280;46511;53.148;8.204;2023-03-21T02:18:44;101477.91;;;11.21;100.00
48968;BME280;46511;53.148;8.204;2023-03-21T02:27:15;101478.19;;;10.96;100.00
48968;BME280;46511;53.148;8.204;2023-03-21T02:30:09;101469.44;;;11.12;100.00
48968;BME280;46511;53.148;8.204;2023-03-21T02:46:49;101453.63;;;11.09;100.00
48968;BME280;46511;53.148;8.204;2023-03-21T02:49:23;101458.63;;;11.15;100.00
48968;BME280;46511;53.148;8.204;2023-03-21T02:52:00;101455.78;;;11.01;100.00
48968;BME280;46511;53.148;8.204;2023-03-21T02:54:35;101458.38;;;11.03;100.00
48968;BME280;46511;53.148;8.204;2023-03-21T02:57:08;101459.69;;;10.94;100.00
48968;BME280;46511;53.148;8.204;2023-03-21T02:59:39;101459.00;;;11.08;100.00
48968;BME280;46511;53.148;8.204;2023-03-21T03:02:12;101450.59;;;11.17;100.00
48968;BME280;46511;53.148;8.204;2023-03-21T03:04:45;101447.16;;;10.96;100.00
48968;BME280;46511;53.148;8.204;2023-03-21T03:10:09;101450.47;;;11.20;100.00
48968;BME280;46511;53.148;8.204;2023-03-21T03:13:07;101449.69;;;10.99;100.00
48968;BME280;46511;53.148;8.204;2023-03-21T03:15:44;101445.16;;;11.01;100.00
48968;BME280;46511;53.148;8.204;2023-03-21T03:21:16;101445.22;;;11.19;100.00
48968;BME280;46511;53.148;8.204;2023-03-21T03:23:54;101440.53;;;11.24;100.00
48968;BME280;46511;53.148;8.204;2023-03-21T03:26:49;101441.63;;;11.20;100.00
48968;BME280;46511;53.148;8.204;2023-03-21T03:29:24;101447.25;;;10.95;100.00
48968;BME280;46511;53.148;8.204;2023-03-21T03:34:42;101445.44;;;10.95;100.00
48968;BME280;46511;53.148;8.204;2023-03-21T03:37:20;101439.53;;;11.07;100.00
48968;BME280;46511;53.148;8.204;2023-03-21T03:39:57;101453.34;;;10.78;100.00
48968;BME280;46511;53.148;8.204;2023-03-21T03:42:36;101439.41;;;11.10;100.00
48968;BME280;46511;53.148;8.204;2023-03-21T03:45:23;101439.13;;;10.79;100.00
48968;BME280;46511;53.148;8.204;2023-03-21T03:48:11;101446.06;;;11.19;100.00
48968;BME280;46511;53.148;8.204;2023-03-21T03:50:56;101446.03;;;11.02;100.00
48968;BME280;46511;53.148;8.204;2023-03-21T03:53:43;101449.91;;;10.76;100.00
48968;BME280;46511;53.148;8.204;2023-03-21T03:56:23;101439.97;;;10.98;100.00
48968;BME280;46511;53.148;8.204;2023-03-21T03:58:56;101441.22;;;11.27;100.00
48968;BME280;46511;53.148;8.204;2023-03-21T04:01:27;101453.44;;;11.31;100.00
48968;BME280;46511;53.148;8.204;2023-03-21T04:03:59;101438.97;;;11.20;100.00
48968;BME280;46511;53.148;8.204;2023-03-21T04:06:30;101438.66;;;11.07;100.00
48968;BME280;46511;53.148;8.204;2023-03-21T04:09:02;101440.34;;;11.27;100.00
48968;BME280;46511;53.148;8.204;2023-03-21T04:11:35;101434.28;;;11.42;100.00
48968;BME280;46511;53.148;8.204;2023-03-21T04:14:07;101434.44;;;11.39;100.00
48968;BME280;46511;53.148;8.204;2023-03-21T04:16:38;101423.94;;;11.36;100.00
48968;BME280;46511;53.148;8.204;2023-03-21T04:19:09;101428.56;;;11.32;100.00
48968;BME280;46511;53.148;8.204;2023-03-21T04:21:41;101433.88;;;11.32;100.00
48968;BME280;46511;53.148;8.204;2023-03-21T04:24:13;101423.28;;;11.67;100.00
48968;BME280;46511;53.148;8.204;2023-03-21T04:26:44;101424.75;;;11.55;100.00
48968;BME280;46511;53.148;8.204;2023-03-21T04:29:15;101423.00;;;11.20;100.00
48968;BME280;46511;53.148;8.204;2023-03-21T04:31:47;101416.41;;;11.09;100.00
48968;BME280;46511;53.148;8.204;2023-03-21T04:34:19;101421.59;;;11.30;100.00
48968;BME280;46511;53.148;8.204;2023-03-21T04:36:54;101425.53;;;11.40;100.00
48968;BME280;46511;53.148;8.204;2023-03-21T04:39:25;101418.50;;;11.03;100.00
48968;BME280;46511;53.148;8.204;2023-03-21T04:41:56;101422.34;;;11.14;100.00
48968;BME280;46511;53.148;8.204;2023-03-21T04:44:27;101413.63;;;11.30;100.00
48968;BME280;46511;53.148;8.204;2023-03-21T04:46:59;101421.75;;;11.44;100.00
48968;BME280;46511;53.148;8.204;2023-03-21T04:49:30;101408.44;;;11.27;100.00
48968;BME280;46511;53.148;8.204;2023-03-21T04:51:57;101410.34;;;11.42;100.00
48968;BME280;46511;53.148;8.204;2023-03-21T04:54:28;101414.25;;;11.35;100.00
48968;BME280;46511;53.148;8.204;2023-03-21T04:56:59;101401.41;;;11.26;100.00
48968;BME280;46511;53.148;8.204;2023-03-21T04:59:31;101401.81;;;11.35;100.00
48968;BME280;46511;53.148;8.204;2023-03-21T05:02:02;101406.19;;;11.54;100.00
48968;BME280;46511;53.148;8.204;2023-03-21T05:04:33;101402.47;;;11.58;100.00
48968;BME280;46511;53.148;8.204;2023-03-21T05:07:05;101405.66;;;11.47;100.00
48968;BME280;46511;53.148;8.204;2023-03-21T05:09:36;101400.50;;;11.61;100.00
48968;BME280;46511;53.148;8.204;2023-03-21T05:12:08;101398.53;;;11.65;100.00
48968;BME280;46511;53.148;8.204;2023-03-21T05:14:39;101397.16;;;11.58;100.00
48968;BME280;46511;53.148;8.204;2023-03-21T05:17:10;101390.31;;;11.52;100.00
48968;BME280;46511;53.148;8.204;2023-03-21T05:19:45;101395.47;;;11.55;100.00
48968;BME280;46511;53.148;8.204;2023-03-21T05:22:16;101395.56;;;11.54;100.00
48968;BME280;46511;53.148;8.204;2023-03-21T05:24:49;101400.19;;;11.50;100.00
48968;BME280;46511;53.148;8.204;2023-03-21T05:27:21;101393.91;;;11.34;100.00
48968;BME280;46511;53.148;8.204;2023-03-21T05:30:15;101397.16;;;11.58;100.00
48968;BME280;46511;53.148;8.204;2023-03-21T05:32:48;101395.50;;;11.38;100.00
48968;BME280;46511;53.148;8.204;2023-03-21T05:35:19;101397.16;;;11.58;100.00
48968;BME280;46511;53.148;8.204;2023-03-21T05:37:51;101397.44;;;11.34;100.00
48968;BME280;46511;53.148;8.204;2023-03-21T05:40:23;101398.75;;;11.43;100.00
48968;BME280;46511;53.148;8.204;2023-03-21T05:42:54;101392.59;;;11.42;100.00
48968;BME280;46511;53.148;8.204;2023-03-21T05:45:25;101395.94;;;11.63;100.00
48968;BME280;46511;53.148;8.204;2023-03-21T05:47:57;101390.56;;;11.48;100.00
48968;BME280;46511;53.148;8.204;2023-03-21T05:50:28;101394.56;;;11.56;100.00
48968;BME280;46511;53.148;8.204;2023-03-21T05:52:59;101392.97;;;11.35;100.00
48968;BME280;46511;53.148;8.204;2023-03-21T05:55:31;101390.38;;;11.33;100.00
48968;BME280;46511;53.148;8.204;2023-03-21T05:58:02;101381.84;;;11.27;100.00
48968;BME280;46511;53.148;8.204;2023-03-21T06:00:33;101368.44;;;11.47;100.00
48968;BME280;46511;53.148;8.204;2023-03-21T06:03:05;101378.72;;;11.70;100.00
48968;BME280;46511;53.148;8.204;2023-03-21T06:05:36;101372.94;;;11.62;100.00
48968;BME280;46511;53.148;8.204;2023-03-21T06:08:07;101379.06;;;11.82;100.00
48968;BME280;46511;53.148;8.204;2023-03-21T06:10:39;101372.84;;;11.64;100.00
48968;BME280;46511;53.148;8.204;2023-03-21T06:13:10;101383.53;;;11.81;100.00
48968;BME280;46511;53.148;8.204;2023-03-21T06:15:41;101380.38;;;11.38;100.00
48968;BME280;46511;53.148;8.204;2023-03-21T06:18:13;101377.88;;;11.53;100.00
48968;BME280;46511;53.148;8.204;2023-03-21T06:20:44;101374.66;;;11.46;100.00
48968;BME280;46511;53.148;8.204;2023-03-21T06:23:15;101386.41;;;11.77;100.00
48968;BME280;46511;53.148;8.204;2023-03-21T06:25:47;101380.16;;;11.43;100.00
48968;BME280;46511;53.148;8.204;2023-03-21T06:28:19;101387.75;;;11.68;100.00
48968;BME280;46511;53.148;8.204;2023-03-21T06:30:51;101380.69;;;11.50;100.00
48968;BME280;46511;53.148;8.204;2023-03-21T06:33:22;101379.19;;;11.79;100.00
48968;BME280;46511;53.148;8.204;2023-03-21T06:35:55;101378.34;;;11.61;100.00
48968;BME280;46511;53.148;8.204;2023-03-21T06:38:27;101372.63;;;11.34;100.00
48968;BME280;46511;53.148;8.204;2023-03-21T06:40:59;101378.44;;;11.59;100.00
48968;BME280;46511;53.148;8.204;2023-03-21T06:43:30;101381.09;;;11.59;100.00
48968;BME280;46511;53.148;8.204;2023-03-21T06:46:02;101385.72;;;11.38;100.00
48968;BME280;46511;53.148;8.204;2023-03-21T06:48:33;101380.97;;;11.26;100.00
48968;BME280;46511;53.148;8.204;2023-03-21T06:51:05;101376.84;;;11.72;100.00
48968;BME280;46511;53.148;8.204;2023-03-21T06:53:36;101379.53;;;11.38;100.00
48968;BME280;46511;53.148;8.204;2023-03-21T06:56:09;101384.38;;;11.30;100.00
48968;BME280;46511;53.148;8.204;2023-03-21T06:58:41;101387.09;;;11.45;100.00
48968;BME280;46511;53.148;8.204;2023-03-21T07:01:13;101383.41;;;11.65;100.00
48968;BME280;46511;53.148;8.204;2023-03-21T07:03:44;101384.00;;;11.37;100.00
48968;BME280;46511;53.148;8.204;2023-03-21T07:06:16;101380.69;;;11.50;100.00
48968;BME280;46511;53.148;8.204;2023-03-21T07:08:47;101379.69;;;11.52;100.00
48968;BME280;46511;53.148;8.204;2023-03-21T07:11:19;101377.00;;;11.69;100.00
48968;BME280;46511;53.148;8.204;2023-03-21T07:13:50;101385.84;;;11.53;100.00
48968;BME280;46511;53.148;8.204;2023-03-21T07:16:22;101382.03;;;11.58;100.00
48968;BME280;46511;53.148;8.204;2023-03-21T07:18:54;101385.97;;;11.86;100.00
48968;BME280;46511;53.148;8.204;2023-03-21T07:21:26;101379.66;;;12.04;100.00
48968;BME280;46511;53.148;8.204;2023-03-21T07:23:57;101376.00;;;11.89;100.00
48968;BME280;46511;53.148;8.204;2023-03-21T07:26:28;101384.31;;;11.66;100.00
48968;BME280;46511;53.148;8.204;2023-03-21T07:29:00;101379.84;;;11.66;100.00
48968;BME280;46511;53.148;8.204;2023-03-21T07:31:31;101377.41;;;11.62;100.00
48968;BME280;46511;53.148;8.204;2023-03-21T07:34:02;101381.78;;;11.63;100.00
48968;BME280;46511;53.148;8.204;2023-03-21T07:36:34;101383.13;;;11.71;100.00
48968;BME280;46511;53.148;8.204;2023-03-21T07:39:06;101379.19;;;11.79;100.00
48968;BME280;46511;53.148;8.204;2023-03-21T07:41:38;101382.91;;;11.59;100.00
48968;BME280;46511;53.148;8.204;2023-03-21T07:44:09;101379.22;;;11.96;100.00
48968;BME280;46511;53.148;8.204;2023-03-21T07:46:40;101376.69;;;11.93;100.00
48968;BME280;46511;53.148;8.204;2023-03-21T07:49:12;101377.91;;;12.03;100.00
48968;BME280;46511;53.148;8.204;2023-03-21T07:51:43;101378.44;;;11.77;100.00
48968;BME280;46511;53.148;8.204;2023-03-21T07:54:14;101379.31;;;12.10;100.00
48968;BME280;46511;53.148;8.204;2023-03-21T07:56:49;101375.94;;;12.40;100.00
48968;BME280;46511;53.148;8.204;2023-03-21T07:59:20;101381.44;;;12.37;100.00
48968;BME280;46511;53.148;8.204;2023-03-21T08:01:51;101374.47;;;12.01;100.00
48968;BME280;46511;53.148;8.204;2023-03-21T08:04:22;101381.75;;;12.30;100.00
48968;BME280;46511;53.148;8.204;2023-03-21T08:06:54;101376.47;;;12.46;100.00
48968;BME280;46511;53.148;8.204;2023-03-21T08:09:27;101377.34;;;11.81;100.00
48968;BME280;46511;53.148;8.204;2023-03-21T08:11:58;101374.97;;;11.92;100.00
48968;BME280;46511;53.148;8.204;2023-03-21T08:14:29;101379.97;;;11.98;100.00
48968;BME280;46511;53.148;8.204;2023-03-21T08:17:02;101379.44;;;11.91;100.00
48968;BME280;46511;53.148;8.204;2023-03-21T08:19:34;101369.25;;;12.33;100.00
48968;BME280;46511;53.148;8.204;2023-03-21T08:22:07;101370.97;;;12.34;100.00
48968;BME280;46511;53.148;8.204;2023-03-21T08:24:38;101371.06;;;12.48;100.00
48968;BME280;46511;53.148;8.204;2023-03-21T08:27:09;101369.50;;;11.95;100.00
48968;BME280;46511;53.148;8.204;2023-03-21T08:29:41;101374.00;;;12.10;100.00
48968;BME280;46511;53.148;8.204;2023-03-21T08:32:12;101362.53;;;12.25;100.00
48968;BME280;46511;53.148;8.204;2023-03-21T08:34:43;101364.41;;;12.39;100.00
48968;BME280;46511;53.148;8.204;2023-03-21T08:37:14;101366.78;;;12.61;100.00
48968;BME280;46511;53.148;8.204;2023-03-21T08:39:46;101371.09;;;12.30;100.00
48968;BME280;46511;53.148;8.204;2023-03-21T08:42:17;101364.19;;;12.11;100.00
48968;BME280;46511;53.148;8.204;2023-03-21T08:44:48;101370.88;;;12.35;100.00
48968;BME280;46511;53.148;8.204;2023-03-21T08:47:20;101367.56;;;12.14;100.00
48968;BME280;46511;53.148;8.204;2023-03-21T08:49:52;101368.28;;;11.85;100.00
48968;BME280;46511;53.148;8.204;2023-03-21T08:52:23;101375.44;;;12.33;100.00
48968;BME280;46511;53.148;8.204;2023-03-21T08:54:55;101370.06;;;12.17;100.00
48968;BME280;46511;53.148;8.204;2023-03-21T08:57:27;101364.75;;;12.17;100.00
48968;BME280;46511;53.148;8.204;2023-03-21T08:59:59;101364.19;;;12.11;100.00
48968;BME280;46511;53.148;8.204;2023-03-21T09:02:30;101360.94;;;12.21;100.00
48968;BME280;46511;53.148;8.204;2023-03-21T09:05:01;101374.16;;;12.07;100.00
48968;BME280;46511;53.148;8.204;2023-03-21T09:07:36;101367.28;;;12.03;100.00
48968;BME280;46511;53.148;8.204;2023-03-21T09:10:12;101372.03;;;11.81;100.00
48968;BME280;46511;53.148;8.204;2023-03-21T09:12:51;101368.66;;;12.10;100.00
48968;BME280;46511;53.148;8.204;2023-03-21T09:15:24;101365.63;;;12.34;100.00
48968;BME280;46511;53.148;8.204;2023-03-21T09:17:58;101370.16;;;12.32;100.00
48968;BME280;46511;53.148;8.204;2023-03-21T09:20:43;101360.13;;;12.37;100.00
48968;BME280;46511;53.148;8.204;2023-03-21T09:23:16;101354.03;;;12.35;100.00
48968;BME280;46511;53.148;8.204;2023-03-21T09:25:48;101364.25;;;12.58;100.00
48968;BME280;46511;53.148;8.204;2023-03-21T09:28:19;101356.19;;;12.59;100.00
48968;BME280;46511;53.148;8.204;2023-03-21T09:30:50;101365.13;;;12.74;100.00
48968;BME280;46511;53.148;8.204;2023-03-21T09:33:22;101364.78;;;12.80;100.00
48968;BME280;46511;53.148;8.204;2023-03-21T09:35:55;101359.09;;;12.23;100.00
48968;BME280;46511;53.148;8.204;2023-03-21T09:38:30;101355.31;;;12.59;100.00
48968;BME280;46511;53.148;8.204;2023-03-21T09:41:10;101356.59;;;12.68;100.00
48968;BME280;46511;53.148;8.204;2023-03-21T09:43:59;101362.25;;;12.14;100.00
48968;BME280;46511;53.148;8.204;2023-03-21T09:46:44;101359.41;;;12.17;100.00
48968;BME280;46511;53.148;8.204;2023-03-21T09:49:32;101359.41;;;12.17;100.00
48968;BME280;46511;53.148;8.204;2023-03-21T09:52:09;101360.63;;;12.27;100.00
48968;BME280;46511;53.148;8.204;2023-03-21T09:54:46;101357.41;;;12.54;100.00
48968;BME280;46511;53.148;8.204;2023-03-21T09:57:23;101367.00;;;12.88;100.00
48968;BME280;46511;53.148;8.204;2023-03-21T10:00:02;101357.91;;;12.76;100.00
48968;BME280;46511;53.148;8.204;2023-03-21T10:02:49;101357.91;;;12.76;100.00
48968;BME280;46511;53.148;8.204;2023-03-21T10:05:24;101355.31;;;12.75;100.00
48968;BME280;46511;53.148;8.204;2023-03-21T10:10:31;101351.47;;;12.65;100.00
48968;BME280;46511;53.148;8.204;2023-03-21T10:13:10;101352.47;;;13.09;100.00
48968;BME280;46511;53.148;8.204;2023-03-21T10:15:47;101347.69;;;12.53;100.00
48968;BME280;46511;53.148;8.204;2023-03-21T10:18:23;101357.03;;;12.60;100.00
48968;BME280;46511;53.148;8.204;2023-03-21T10:21:04;101347.13;;;12.30;100.00
48968;BME280;46511;53.148;8.204;2023-03-21T10:23:36;101345.69;;;12.41;100.00
48968;BME280;46511;53.148;8.204;2023-03-21T10:26:07;101351.97;;;12.24;100.00
48968;BME280;46511;53.148;8.204;2023-03-21T10:28:39;101351.16;;;12.06;100.00
48968;BME280;46511;53.148;8.204;2023-03-21T10:31:13;101345.84;;;12.38;100.00
48968;BME280;46511;53.148;8.204;2023-03-21T10:33:48;101351.53;;;12.79;100.00
48968;BME280;46511;53.148;8.204;2023-03-21T10:36:21;101340.72;;;12.82;100.00
48968;BME280;46511;53.148;8.204;2023-03-21T10:39:03;101340.53;;;13.15;100.00
48968;BME280;46511;53.148;8.204;2023-03-21T10:41:37;101336.22;;;12.82;100.00
48968;BME280;46511;53.148;8.204;2023-03-21T10:44:11;101334.63;;;13.10;100.00
48968;BME280;46511;53.148;8.204;2023-03-21T10:46:50;101328.59;;;13.22;100.00
48968;BME280;46511;53.148;8.204;2023-03-21T10:49:25;101327.31;;;13.43;100.00
48968;BME280;46511;53.148;8.204;2023-03-21T10:52:02;101318.41;;;13.73;100.00
48968;BME280;46511;53.148;8.204;2023-03-21T10:54:37;101315.38;;;13.93;100.00
48968;BME280;46511;53.148;8.204;2023-03-21T10:57:19;101320.97;;;13.46;100.00
48968;BME280;46511;53.148;8.204;2023-03-21T10:59:56;101313.47;;;13.67;100.00
48968;BME280;46511;53.148;8.204;2023-03-21T11:02:32;101321.56;;;13.21;100.00
48968;BME280;46511;53.148;8.204;2023-03-21T11:05:07;101306.16;;;13.40;100.00
48968;BME280;46511;53.148;8.204;2023-03-21T11:08:02;101298.56;;;13.49;100.00
48968;BME280;46511;53.148;8.204;2023-03-21T11:10:37;101303.38;;;13.28;100.00
48968;BME280;46511;53.148;8.204;2023-03-21T11:13:25;101312.28;;;12.97;100.00
48968;BME280;46511;53.148;8.204;2023-03-21T11:16:22;101297.59;;;13.50;100.00
48968;BME280;46511;53.148;8.204;2023-03-21T11:19:01;101304.25;;;13.12;100.00
48968;BME280;46511;53.148;8.204;2023-03-21T11:21:41;101301.66;;;12.81;100.00
48968;BME280;46511;53.148;8.204;2023-03-21T11:24:15;101293.66;;;13.27;100.00
48968;BME280;46511;53.148;8.204;2023-03-21T11:26:48;101295.47;;;12.80;100.00
48968;BME280;46511;53.148;8.204;2023-03-21T11:29:34;101308.06;;;13.38;100.00
48968;BME280;46511;53.148;8.204;2023-03-21T11:32:31;101300.13;;;13.67;100.00
48968;BME280;46511;53.148;8.204;2023-03-21T11:35:11;101301.94;;;13.06;100.00
48968;BME280;46511;53.148;8.204;2023-03-21T11:37:52;101296.59;;;13.06;100.00
48968;BME280;46511;53.148;8.204;2023-03-21T11:40:30;101292.72;;;13.42;100.00
48968;BME280;46511;53.148;8.204;2023-03-21T11:45:55;101287.44;;;13.85;100.00
48968;BME280;46511;53.148;8.204;2023-03-21T11:48:28;101276.22;;;13.35;100.00
48968;BME280;46511;53.148;8.204;2023-03-21T11:51:14;101274.91;;;13.28;100.00
48968;BME280;46511;53.148;8.204;2023-03-21T11:56:46;101277.25;;;13.03;100.00
48968;BME280;46511;53.148;8.204;2023-03-21T11:59:24;101278.44;;;13.13;100.00
48968;BME280;46511;53.148;8.204;2023-03-21T12:05:16;101270.09;;;13.19;100.00
48968;BME280;46511;53.148;8.204;2023-03-21T12:07:55;101265.19;;;13.41;100.00
48968;BME280;46511;53.148;8.204;2023-03-21T12:13:26;101267.41;;;12.89;100.00
48968;BME280;46511;53.148;8.204;2023-03-21T12:18:59;101250.41;;;12.60;100.00
48968;BME280;46511;53.148;8.204;2023-03-21T12:24:30;101255.09;;;12.41;100.00
48968;BME280;46511;53.148;8.204;2023-03-21T12:27:24;101249.25;;;12.18;100.00
48968;BME280;46511;53.148;8.204;2023-03-21T12:33:35;101246.13;;;12.73;100.00
48968;BME280;46511;53.148;8.204;2023-03-21T12:36:32;101253.69;;;12.81;100.00
48968;BME280;46511;53.148;8.204;2023-03-21T12:44:45;101233.94;;;13.13;100.00
48968;BME280;46511;53.148;8.204;2023-03-21T12:47:28;101240.88;;;13.02;100.00
48968;BME280;46511;53.148;8.204;2023-03-21T12:50:14;101236.53;;;12.55;100.00
48968;BME280;46511;53.148;8.204;2023-03-21T12:52:51;101236.00;;;12.48;100.00
48968;BME280;46511;53.148;8.204;2023-03-21T12:55:29;101239.63;;;12.93;100.00
48968;BME280;46511;53.148;8.204;2023-03-21T12:58:03;101238.53;;;12.81;100.00
48968;BME280;46511;53.148;8.204;2023-03-21T13:00:44;101230.28;;;13.30;100.00
48968;BME280;46511;53.148;8.204;2023-03-21T13:03:22;101227.31;;;13.21;100.00
48968;BME280;46511;53.148;8.204;2023-03-21T13:06:08;101212.66;;;12.98;100.00
48968;BME280;46511;53.148;8.204;2023-03-21T13:08:47;101206.91;;;12.59;100.00
48968;BME280;46511;53.148;8.204;2023-03-21T13:11:27;101204.72;;;12.82;100.00
48968;BME280;46511;53.148;8.204;2023-03-21T13:16:44;101201.50;;;13.35;100.00
48968;BME280;46511;53.148;8.204;2023-03-21T13:19:29;101204.84;;;13.39;100.00
48968;BME280;46511;53.148;8.204;2023-03-21T13:24:58;101195.81;;;12.97;100.00
48968;BME280;46511;53.148;8.204;2023-03-21T13:27:34;101184.09;;;13.30;100.00
48968;BME280;46511;53.148;8.204;2023-03-21T13:30:18;101186.94;;;13.27;100.00
48968;BME280;46511;53.148;8.204;2023-03-21T13:33:05;101177.88;;;13.43;100.00
48968;BME280;46511;53.148;8.204;2023-03-21T13:35:38;101171.69;;;13.43;100.00
48968;BME280;46511;53.148;8.204;2023-03-21T13:38:13;101169.88;;;13.58;100.00
48968;BME280;46511;53.148;8.204;2023-03-21T13:40:50;101170.00;;;13.97;100.00
48968;BME280;46511;53.148;8.204;2023-03-21T13:43:31;101167.16;;;13.72;100.00
48968;BME280;46511;53.148;8.204;2023-03-21T13:46:12;101172.44;;;13.45;100.00
48968;BME280;46511;53.148;8.204;2023-03-21T13:49:00;101163.41;;;13.48;100.00
48968;BME280;46511;53.148;8.204;2023-03-21T13:51:43;101163.69;;;13.57;100.00
48968;BME280;46511;53.148;8.204;2023-03-21T13:54:22;101160.72;;;13.33;100.00
48968;BME280;46511;53.148;8.204;2023-03-21T13:56:59;101154.16;;;13.25;100.00
48968;BME280;46511;53.148;8.204;2023-03-21T14:02:19;101146.97;;;13.68;100.00
48968;BME280;46511;53.148;8.204;2023-03-21T14:05:13;101138.44;;;13.20;100.00
48968;BME280;46511;53.148;8.204;2023-03-21T14:07:51;101132.03;;;13.23;100.00
48968;BME280;46511;53.148;8.204;2023-03-21T14:10:32;101122.78;;;13.42;100.00
48968;BME280;46511;53.148;8.204;2023-03-21T14:13:25;101114.31;;;13.50;100.00
48968;BME280;46511;53.148;8.204;2023-03-21T14:16:05;101119.06;;;13.59;100.00
48968;BME280;46511;53.148;8.204;2023-03-21T14:18:44;101099.47;;;13.32;100.00
48968;BME280;46511;53.148;8.204;2023-03-21T14:21:23;101108.31;;;13.18;100.00
48968;BME280;46511;53.148;8.204;2023-03-21T14:24:01;101103.94;;;13.17;100.00
48968;BME280;46511;53.148;8.204;2023-03-21T14:26:42;101109.25;;;13.03;100.00
48968;BME280;46511;53.148;8.204;2023-03-21T14:29:25;101116.03;;;13.37;100.00